Time;durP1;ratioP1;P1;durP2;ratioP2;P2;SDS_P1;SDS_P2;PMS_P1;PMS_P2;Temp;Humidity;BMP_temperature;BMP_pressure;BME280_temperature;BME280_humidity;BME280_pressure;Samples;Min_cycle;Max_cycle;Signal;HPM_P1;HPM_P2
2021/06/11 00:01:47;;;;;;;21.77;16.83;;;17.40;90.50;;;;;;5071622;28;20041;-56
2021/06/11 00:04:18;;;;;;;24.65;18.35;;;17.40;90.50;;;;;;5078134;28;20036;-56
2021/06/11 00:06:43;;;;;;;24.30;18.00;;;17.40;90.60;;;;;;5070106;28;20579;-55
2021/06/11 00:09:14;;;;;;;23.67;18.45;;;17.40;90.60;;;;;;5071308;28;20067;-53
2021/06/11 00:11:42;;;;;;;24.25;17.17;;;17.40;90.80;;;;;;5071192;28;20061;-55
2021/06/11 00:14:08;;;;;;;19.95;15.90;;;17.40;90.70;;;;;;5070499;28;20052;-56
2021/06/11 00:16:34;;;;;;;19.38;15.40;;;17.40;90.60;;;;;;5070774;28;20040;-56
2021/06/11 00:18:59;;;;;;;18.33;14.35;;;17.30;90.50;;;;;;5070449;28;20041;-56
2021/06/11 00:21:29;;;;;;;19.00;13.20;;;17.30;90.30;;;;;;5070781;28;20131;-56
2021/06/11 00:23:55;;;;;;;12.32;9.77;;;17.30;90.20;;;;;;5074516;28;20051;-54
2021/06/11 00:26:21;;;;;;;14.05;11.30;;;17.20;90.10;;;;;;5076700;28;20052;-53
2021/06/11 00:28:47;;;;;;;20.10;14.20;;;17.20;90.10;;;;;;5074501;28;20048;-56
2021/06/11 00:31:12;;;;;;;20.75;15.02;;;17.10;90.20;;;;;;5073292;28;20519;-54
2021/06/11 00:33:38;;;;;;;20.63;15.55;;;17.10;90.30;;;;;;5065825;28;20275;-56
2021/06/11 00:36:06;;;;;;;19.80;14.98;;;17.00;90.30;;;;;;5062359;28;20097;-56
2021/06/11 00:38:33;;;;;;;19.33;15.38;;;17.00;90.40;;;;;;5075960;28;20127;-55
2021/06/11 00:41:00;;;;;;;21.08;15.45;;;17.00;90.40;;;;;;5067139;28;20053;-56
2021/06/11 00:43:26;;;;;;;20.73;15.02;;;17.00;90.40;;;;;;5052858;28;20037;-56
2021/06/11 00:45:52;;;;;;;19.48;15.57;;;16.90;90.40;;;;;;5071699;28;20043;-56
2021/06/11 00:48:18;;;;;;;18.50;14.85;;;16.90;90.40;;;;;;5070247;28;20044;-53
2021/06/11 00:50:44;;;;;;;22.98;15.93;;;16.90;90.50;;;;;;5079923;28;20044;-55
2021/06/11 00:53:11;;;;;;;19.75;14.43;;;16.80;90.40;;;;;;5052183;28;20048;-55
2021/06/11 00:55:43;;;;;;;14.65;12.45;;;16.80;90.50;;;;;;5071804;28;20045;-55
2021/06/11 00:58:10;;;;;;;;;;;16.80;90.50;;;;;;5080276;28;20079;-55
2021/06/11 01:00:36;;;;;;;16.25;12.57;;;16.80;90.30;;;;;;5067550;28;19924;-55
2021/06/11 01:03:03;;;;;;;18.10;14.32;;;16.70;90.20;;;;;;5079810;28;20036;-55
2021/06/11 01:05:28;;;;;;;17.02;13.35;;;16.60;90.20;;;;;;5083087;28;20049;-60
2021/06/11 01:07:55;;;;;;;19.80;14.00;;;16.60;90.20;;;;;;5077572;28;20481;-56
2021/06/11 01:10:22;;;;;;;19.08;14.63;;;16.50;90.10;;;;;;5077171;28;20129;-55
2021/06/11 01:12:49;;;;;;;17.60;14.00;;;16.50;90.30;;;;;;5078440;28;20048;-55
2021/06/11 01:15:17;;;;;;;13.15;9.77;;;16.40;90.40;;;;;;5076694;28;20041;-55
2021/06/11 01:17:46;;;;;;;14.02;10.45;;;16.40;90.30;;;;;;5076640;28;20109;-56
2021/06/11 01:20:13;;;;;;;13.98;10.52;;;16.30;90.10;;;;;;5071347;28;20387;-55
2021/06/11 01:22:51;;;;;;;14.02;11.45;;;16.20;90.00;;;;;;5076941;28;20076;-55
2021/06/11 01:25:37;;;;;;;16.42;12.60;;;16.10;89.90;;;;;;5073883;28;20353;-52
2021/06/11 01:28:06;;;;;;;16.90;13.27;;;16.10;90.00;;;;;;5074099;28;20059;-55
2021/06/11 01:30:33;;;;;;;11.43;8.75;;;16.10;90.20;;;;;;5042395;28;20087;-56
2021/06/11 01:33:01;;;;;;;14.23;11.35;;;16.00;90.20;;;;;;5076115;28;20040;-54
2021/06/11 01:35:38;;;;;;;15.27;11.25;;;16.00;90.20;;;;;;5071757;28;20079;-56
2021/06/11 01:38:04;;;;;;;17.48;12.50;;;15.90;90.30;;;;;;5076464;28;20056;-56
2021/06/11 01:40:34;;;;;;;18.50;13.90;;;15.80;90.40;;;;;;5078319;28;20041;-55
2021/06/11 01:43:01;;;;;;;19.30;14.63;;;15.80;90.60;;;;;;5059482;28;20191;-56
2021/06/11 01:45:29;;;;;;;23.45;15.82;;;15.80;90.60;;;;;;5085370;28;20051;-56
2021/06/11 01:47:58;;;;;;;23.00;17.20;;;15.80;90.70;;;;;;5084549;28;20494;-56
2021/06/11 01:50:35;;;;;;;22.92;17.50;;;15.80;90.90;;;;;;5089954;28;20045;-55
2021/06/11 01:53:03;;;;;;;24.90;18.25;;;15.80;91.20;;;;;;5076792;28;20525;-55
2021/06/11 01:55:36;;;;;;;20.92;16.60;;;15.80;91.30;;;;;;5090539;28;20492;-56
2021/06/11 01:58:03;;;;;;;24.05;18.48;;;15.80;91.30;;;;;;5078443;28;20036;-52
2021/06/11 02:00:29;;;;;;;24.23;16.88;;;15.80;91.20;;;;;;5081573;28;20048;-55
2021/06/11 02:02:56;;;;;;;28.33;20.35;;;15.80;91.30;;;;;;5078743;28;20055;-54
2021/06/11 02:05:22;;;;;;;23.33;19.05;;;15.90;91.50;;;;;;5071042;28;20059;-56
2021/06/11 02:07:49;;;;;;;28.60;21.10;;;15.90;91.50;;;;;;5080183;28;20044;-55
2021/06/11 02:10:21;;;;;;;27.92;20.98;;;15.90;91.70;;;;;;5092174;28;20043;-53
2021/06/11 02:12:48;;;;;;;28.05;20.92;;;15.90;91.70;;;;;;5082790;28;20036;-54
2021/06/11 02:15:16;;;;;;;26.45;21.33;;;16.00;91.70;;;;;;5081064;28;20062;-57
2021/06/11 02:17:49;;;;;;;27.73;19.95;;;16.00;91.70;;;;;;5064196;28;20467;-56
2021/06/11 02:20:23;;;;;;;25.25;19.58;;;16.00;91.70;;;;;;5072628;28;20428;-56
2021/06/11 02:22:49;;;;;;;23.52;18.58;;;16.00;91.70;;;;;;5083463;28;20047;-54
2021/06/11 02:25:18;;;;;;;20.20;15.98;;;15.90;91.50;;;;;;5062909;28;20044;-55
2021/06/11 02:27:45;;;;;;;14.65;12.38;;;16.00;91.40;;;;;;5080438;28;20044;-56
2021/06/11 02:30:14;;;;;;;18.40;14.27;;;15.90;91.10;;;;;;5078004;28;152030;-55
2021/06/11 02:32:40;;;;;;;23.40;16.90;;;15.90;91.10;;;;;;5063001;28;20056;-55
2021/06/11 02:35:09;;;;;;;28.75;19.75;;;15.80;91.20;;;;;;5066923;28;20040;-55
2021/06/11 02:37:36;;;;;;;8.65;7.28;;;15.80;91.20;;;;;;5071567;28;20033;-55
2021/06/11 02:40:05;;;;;;;14.00;10.07;;;15.80;91.10;;;;;;5073437;28;20064;-54
2021/06/11 02:42:31;;;;;;;16.60;12.35;;;15.70;91.00;;;;;;5068640;28;20429;-55
2021/06/11 02:45:11;;;;;;;17.58;13.68;;;15.60;90.90;;;;;;5073153;28;20107;-52
2021/06/11 02:48:11;;;;;;;18.02;14.48;;;15.60;91.00;;;;;;5064790;28;20041;-56
2021/06/11 02:50:44;;;;;;;22.95;15.57;;;15.50;91.10;;;;;;5066803;28;20041;-54
2021/06/11 02:53:14;;;;;;;21.13;17.08;;;15.40;91.10;;;;;;5071741;28;20071;-52
2021/06/11 02:55:41;;;;;;;23.90;17.38;;;15.40;91.20;;;;;;5063385;28;20047;-56
2021/06/11 02:58:22;;;;;;;22.83;17.30;;;15.40;91.20;;;;;;5074075;28;20499;-53
2021/06/11 03:00:49;;;;;;;19.42;15.50;;;15.40;91.50;;;;;;5057340;28;20242;-53
2021/06/11 03:03:24;;;;;;;22.90;16.83;;;15.40;91.30;;;;;;5074139;28;20533;-52
2021/06/11 03:06:01;;;;;;;20.25;17.20;;;15.40;91.40;;;;;;5075393;28;20723;-55
2021/06/11 03:08:32;;;;;;;25.35;18.98;;;15.40;91.50;;;;;;5077103;28;20074;-55
2021/06/11 03:11:04;;;;;;;27.50;20.33;;;15.40;91.50;;;;;;5071622;28;20046;-56
2021/06/11 03:13:35;;;;;;;24.75;19.55;;;15.40;91.60;;;;;;5071780;28;20041;-54
2021/06/11 03:16:02;;;;;;;30.55;22.40;;;15.40;91.60;;;;;;5068766;28;20048;-56
2021/06/11 03:18:45;;;;;;;28.85;22.25;;;15.50;91.90;;;;;;5067544;28;20068;-55
2021/06/11 03:21:21;;;;;;;30.00;22.58;;;15.50;92.00;;;;;;5073779;28;20040;-56
2021/06/11 03:23:58;;;;;;;30.08;22.77;;;15.50;92.00;;;;;;5074076;28;20072;-53
2021/06/11 03:26:31;;;;;;;31.40;23.05;;;15.50;92.00;;;;;;5062081;28;20108;-51
2021/06/11 03:29:02;;;;;;;29.40;21.23;;;15.60;92.00;;;;;;5070958;28;20127;-52
2021/06/11 03:31:41;;;;;;;25.40;19.90;;;15.60;92.00;;;;;;5072015;28;20044;-51
2021/06/11 03:34:17;;;;;;;22.30;16.80;;;15.60;91.80;;;;;;5074540;28;20106;-53
2021/06/11 03:37:06;;;;;;;18.23;15.38;;;15.60;91.70;;;;;;5061224;28;20045;-55
2021/06/11 03:40:00;;;;;;;17.95;15.75;;;15.50;91.50;;;;;;5070753;28;20064;-51
2021/06/11 03:42:32;;;;;;;21.33;17.13;;;15.50;91.40;;;;;;5078348;28;20037;-55
2021/06/11 03:44:59;;;;;;;21.23;17.00;;;15.40;91.50;;;;;;5070888;28;20394;-56
2021/06/11 03:47:30;;;;;;;24.48;19.20;;;15.40;91.60;;;;;;5074672;28;20125;-54
2021/06/11 03:49:59;;;;;;;26.58;20.33;;;15.40;91.70;;;;;;5055114;28;20040;-54
2021/06/11 03:52:30;;;;;;;26.75;21.05;;;15.40;91.80;;;;;;5074448;28;20033;-57
2021/06/11 03:55:12;;;;;;;25.83;19.42;;;15.50;91.90;;;;;;5074991;28;20098;-52
2021/06/11 03:57:39;;;;;;;28.70;21.05;;;15.50;91.90;;;;;;5083876;28;20040;-54
2021/06/11 04:00:11;;;;;;;27.58;21.10;;;15.50;92.10;;;;;;5077007;28;20135;-54
2021/06/11 04:02:39;;;;;;;29.67;21.25;;;15.60;92.00;;;;;;5081850;28;20087;-53
2021/06/11 04:05:06;;;;;;;27.23;21.23;;;15.60;92.00;;;;;;5080104;28;20033;-55
2021/06/11 04:07:36;;;;;;;28.63;22.80;;;15.70;92.00;;;;;;5074470;28;20123;-56
2021/06/11 04:10:12;;;;;;;30.15;22.83;;;15.70;92.00;;;;;;5078377;28;20044;-55
2021/06/11 04:12:46;;;;;;;33.17;24.92;;;15.70;92.10;;;;;;5059037;28;20133;-56
2021/06/11 04:15:12;;;;;;;33.22;25.38;;;15.80;92.30;;;;;;5078979;28;20045;-54
2021/06/11 04:17:42;;;;;;;33.13;24.52;;;15.80;92.20;;;;;;5079508;28;20057;-52
2021/06/11 04:20:14;;;;;;;32.85;25.02;;;15.90;92.20;;;;;;5074656;28;20055;-51
2021/06/11 04:22:45;;;;;;;30.57;23.27;;;15.90;92.20;;;;;;5081434;28;20082;-52
2021/06/11 04:25:13;;;;;;;32.40;24.85;;;16.00;92.20;;;;;;5077854;28;20086;-51
2021/06/11 04:27:41;;;;;;;30.35;22.27;;;16.00;92.30;;;;;;5076352;28;20048;-53
2021/06/11 04:30:09;;;;;;;27.65;22.25;;;16.10;92.20;;;;;;5075862;28;20428;-54
2021/06/11 04:32:36;;;;;;;30.00;23.15;;;16.10;92.20;;;;;;5079805;28;20457;-55
2021/06/11 04:35:03;;;;;;;31.30;23.90;;;16.10;92.10;;;;;;5075556;28;20477;-55
2021/06/11 04:37:32;;;;;;;31.60;23.70;;;16.20;92.10;;;;;;5063025;28;20040;-54
2021/06/11 04:39:59;;;;;;;32.30;24.13;;;16.20;92.10;;;;;;5077801;28;20028;-55
2021/06/11 04:42:26;;;;;;;31.23;24.77;;;16.20;92.10;;;;;;5042437;28;20045;-54
2021/06/11 04:44:52;;;;;;;32.22;25.10;;;16.30;92.20;;;;;;5076640;28;20048;-52
2021/06/11 04:47:17;;;;;;;34.55;25.52;;;16.30;92.20;;;;;;5078249;28;20053;-51
2021/06/11 04:49:47;;;;;;;35.30;25.50;;;16.40;92.30;;;;;;5082983;28;20404;-55
2021/06/11 04:52:13;;;;;;;40.75;27.00;;;16.40;92.40;;;;;;5080008;28;20043;-56
2021/06/11 04:54:41;;;;;;;35.90;27.10;;;16.50;92.40;;;;;;5073763;28;20379;-54
2021/06/11 04:57:07;;;;;;;35.42;26.90;;;16.60;92.40;;;;;;5069111;28;20392;-54
2021/06/11 04:59:33;;;;;;;35.33;26.30;;;16.70;92.30;;;;;;5077102;28;20139;-54
2021/06/11 05:01:59;;;;;;;34.92;26.90;;;16.80;92.20;;;;;;5078035;28;20049;-54
2021/06/11 05:04:26;;;;;;;32.72;25.42;;;17.00;92.20;;;;;;5076400;28;20037;-54
2021/06/11 05:06:52;;;;;;;32.10;24.83;;;17.20;92.20;;;;;;5087951;28;20488;-56
2021/06/11 05:09:18;;;;;;;29.80;23.98;;;17.30;92.00;;;;;;5064876;28;20128;-56
2021/06/11 05:11:49;;;;;;;29.80;22.40;;;17.50;91.90;;;;;;5074471;28;20056;-56
2021/06/11 05:14:15;;;;;;;27.48;21.85;;;17.70;91.50;;;;;;5074960;28;20052;-56
2021/06/11 05:16:45;;;;;;;28.33;22.63;;;17.80;91.30;;;;;;5079449;28;20044;-55
2021/06/11 05:19:13;;;;;;;27.23;21.80;;;18.00;91.00;;;;;;5076660;28;20078;-56
2021/06/11 05:21:41;;;;;;;28.85;22.00;;;18.10;90.60;;;;;;5073914;28;20119;-56
2021/06/11 05:24:09;;;;;;;29.42;22.67;;;18.30;90.40;;;;;;5077663;28;20044;-56
2021/06/11 05:26:35;;;;;;;30.65;23.92;;;18.50;90.20;;;;;;5076049;28;20515;-55
2021/06/11 05:29:01;;;;;;;33.75;24.67;;;18.70;90.00;;;;;;5078853;28;20064;-57
2021/06/11 05:31:29;;;;;;;34.92;26.50;;;18.90;89.50;;;;;;5077161;28;20112;-55
2021/06/11 05:33:55;;;;;;;32.92;25.15;;;19.00;88.90;;;;;;5076374;28;20449;-55
2021/06/11 05:36:21;;;;;;;33.97;25.08;;;19.20;88.10;;;;;;5077031;28;20522;-55
2021/06/11 05:38:48;;;;;;;30.67;24.20;;;19.40;87.90;;;;;;5074799;28;20069;-56
2021/06/11 05:41:14;;;;;;;36.53;25.08;;;19.60;87.50;;;;;;5073664;28;20117;-56
2021/06/11 05:43:41;;;;;;;30.55;24.48;;;19.70;86.50;;;;;;5074099;28;20036;-56
2021/06/11 05:46:17;;;;;;;30.35;23.27;;;19.90;86.10;;;;;;5068417;28;20047;-56
2021/06/11 05:48:50;;;;;;;29.35;22.15;;;20.00;85.80;;;;;;5075352;28;20040;-55
2021/06/11 05:51:24;;;;;;;26.90;21.67;;;20.20;84.50;;;;;;5078171;28;20055;-55
2021/06/11 05:53:50;;;;;;;23.73;18.13;;;20.60;82.00;;;;;;5060270;28;20524;-55
2021/06/11 05:56:16;;;;;;;24.50;17.50;;;21.10;79.40;;;;;;5072601;28;20068;-56
2021/06/11 05:58:42;;;;;;;23.10;17.65;;;21.10;77.90;;;;;;5078219;28;20131;-56
2021/06/11 06:01:17;;;;;;;25.02;18.00;;;21.30;77.50;;;;;;5074736;28;20048;-54
2021/06/11 06:03:43;;;;;;;24.58;17.90;;;21.30;77.60;;;;;;5076665;28;20041;-52
2021/06/11 06:06:12;;;;;;;24.10;19.45;;;21.10;78.20;;;;;;5076231;28;20064;-56
2021/06/11 06:08:41;;;;;;;25.48;19.50;;;20.90;78.90;;;;;;5069020;28;20556;-53
2021/06/11 06:11:14;;;;;;;25.25;17.88;;;20.70;79.70;;;;;;5075620;28;20044;-53
2021/06/11 06:13:42;;;;;;;24.08;18.63;;;20.50;80.00;;;;;;5077515;28;20045;-53
2021/06/11 06:16:19;;;;;;;25.10;19.42;;;20.30;80.50;;;;;;5064127;28;20052;-53
2021/06/11 06:18:46;;;;;;;26.17;20.10;;;20.20;81.30;;;;;;5078577;28;20053;-54
2021/06/11 06:21:23;;;;;;;25.90;19.17;;;20.10;82.00;;;;;;5076020;28;20148;-50
2021/06/11 06:23:50;;;;;;;24.83;18.73;;;20.00;82.20;;;;;;5075596;28;20101;-54
2021/06/11 06:26:17;;;;;;;24.88;19.00;;;20.00;82.50;;;;;;5058322;28;20051;-51
2021/06/11 06:28:55;;;;;;;25.45;20.05;;;19.90;82.60;;;;;;5070150;28;20048;-54
2021/06/11 06:31:22;;;;;;;26.13;19.13;;;19.90;82.60;;;;;;5071605;28;20048;-54
2021/06/11 06:33:51;;;;;;;24.75;20.17;;;19.80;83.00;;;;;;5072122;28;20051;-53
2021/06/11 06:36:19;;;;;;;24.60;19.20;;;19.80;83.30;;;;;;5085322;28;20211;-55
2021/06/11 06:38:51;;;;;;;30.33;19.55;;;19.80;83.00;;;;;;5081716;28;20093;-52
2021/06/11 06:41:18;;;;;;;24.33;18.52;;;19.70;83.10;;;;;;5080793;28;20047;-55
2021/06/11 06:43:44;;;;;;;25.00;19.08;;;19.70;83.30;;;;;;5084685;28;20106;-53
2021/06/11 06:46:11;;;;;;;27.17;19.23;;;19.80;83.30;;;;;;5093100;28;20051;-54
2021/06/11 06:48:37;;;;;;;27.20;19.95;;;19.80;83.40;;;;;;5088858;28;20079;-55
2021/06/11 06:51:04;;;;;;;25.45;19.45;;;19.80;84.20;;;;;;5079567;28;20043;-53
2021/06/11 06:53:30;;;;;;;24.83;18.65;;;19.90;83.70;;;;;;5088220;28;20051;-54
2021/06/11 06:55:56;;;;;;;22.58;18.10;;;19.90;83.70;;;;;;5089821;28;20035;-55
2021/06/11 06:58:22;;;;;;;23.88;18.38;;;20.00;83.40;;;;;;5085010;28;20044;-54
2021/06/11 07:00:47;;;;;;;24.50;18.52;;;20.00;82.90;;;;;;5084097;28;20387;-54
2021/06/11 07:03:13;;;;;;;22.70;18.95;;;20.10;82.50;;;;;;5082210;28;20039;-54
2021/06/11 07:05:39;;;;;;;23.80;18.70;;;20.20;82.50;;;;;;5088552;28;20119;-53
2021/06/11 07:08:14;;;;;;;23.40;18.08;;;20.30;82.50;;;;;;5078403;28;20574;-55
2021/06/11 07:10:41;;;;;;;22.52;16.35;;;20.50;82.70;;;;;;5071529;28;20052;-52
2021/06/11 07:13:13;;;;;;;23.40;16.42;;;20.70;82.50;;;;;;5074583;28;20064;-53
2021/06/11 07:15:45;;;;;;;20.98;16.10;;;20.90;81.80;;;;;;5069912;28;20045;-51
2021/06/11 07:18:14;;;;;;;24.65;16.60;;;21.00;80.90;;;;;;5078035;28;20040;-52
2021/06/11 07:20:40;;;;;;;20.73;15.10;;;21.20;80.80;;;;;;5073117;28;20593;-54
2021/06/11 07:23:07;;;;;;;20.35;15.93;;;21.40;80.60;;;;;;5071474;28;20070;-51
2021/06/11 07:25:34;;;;;;;17.05;11.88;;;21.50;79.90;;;;;;5074026;28;20375;-56
2021/06/11 07:28:04;;;;;;;16.42;12.35;;;21.60;78.30;;;;;;5073839;28;20036;-52
2021/06/11 07:30:31;;;;;;;19.58;12.60;;;21.70;78.00;;;;;;5056652;28;20504;-52
2021/06/11 07:33:00;;;;;;;18.45;12.50;;;21.70;78.00;;;;;;5068006;28;20041;-53
2021/06/11 07:35:27;;;;;;;14.15;11.02;;;21.80;77.80;;;;;;5062608;28;20049;-53
2021/06/11 07:37:59;;;;;;;15.27;11.10;;;21.90;77.30;;;;;;5067369;28;20051;-54
2021/06/11 07:40:24;;;;;;;17.65;13.23;;;22.00;77.50;;;;;;5068017;28;20041;-53
2021/06/11 07:42:52;;;;;;;15.70;12.90;;;22.10;77.00;;;;;;5069015;28;20045;-53
2021/06/11 07:45:18;;;;;;;17.00;12.18;;;22.10;77.10;;;;;;5071901;28;20044;-53
2021/06/11 07:47:52;;;;;;;;;;;22.20;77.10;;;;;;5056029;28;20052;-51
2021/06/11 07:50:31;;;;;;;20.10;14.93;;;22.30;77.40;;;;;;5068733;28;20014;-54
2021/06/11 07:52:57;;;;;;;18.23;13.93;;;22.30;76.30;;;;;;5072285;28;20407;-52
2021/06/11 07:55:24;;;;;;;18.10;13.40;;;22.40;76.20;;;;;;5057746;28;20048;-54
2021/06/11 07:58:10;;;;;;;18.80;13.50;;;22.40;76.90;;;;;;5052442;28;20068;-54
2021/06/11 08:00:56;;;;;;;19.42;13.32;;;22.60;76.60;;;;;;5067026;28;20040;-51
2021/06/11 08:03:27;;;;;;;18.02;13.80;;;22.60;75.40;;;;;;5065412;28;20064;-54
2021/06/11 08:05:57;;;;;;;20.02;13.25;;;22.70;75.80;;;;;;5091149;28;20100;-53
2021/06/11 08:08:24;;;;;;;15.50;12.45;;;22.80;75.60;;;;;;5072517;28;20052;-54
2021/06/11 08:10:51;;;;;;;19.35;13.98;;;22.70;75.80;;;;;;5072045;28;20127;-53
2021/06/11 08:13:18;;;;;;;18.45;13.05;;;22.70;76.10;;;;;;5072633;28;20048;-54
2021/06/11 08:15:45;;;;;;;14.73;11.20;;;22.70;75.90;;;;;;5068708;28;20067;-52
2021/06/11 08:18:15;;;;;;;12.93;9.95;;;22.70;75.30;;;;;;5072782;28;20044;-52
2021/06/11 08:20:41;;;;;;;16.38;11.40;;;22.70;75.40;;;;;;5067744;28;20036;-52
2021/06/11 08:23:11;;;;;;;15.20;11.55;;;22.80;75.00;;;;;;5069741;28;20051;-51
2021/06/11 08:25:39;;;;;;;15.43;12.07;;;22.90;75.20;;;;;;5056466;28;20055;-53
2021/06/11 08:28:25;;;;;;;16.60;12.57;;;23.00;75.20;;;;;;5082078;28;20438;-52
2021/06/11 08:30:52;;;;;;;17.90;12.05;;;23.00;74.80;;;;;;5073424;28;20102;-53
2021/06/11 08:33:20;;;;;;;17.10;12.77;;;23.00;74.40;;;;;;5040722;28;20056;-49
2021/06/11 08:35:48;;;;;;;14.82;11.90;;;23.10;74.30;;;;;;5073270;28;20576;-51
2021/06/11 08:38:14;;;;;;;17.10;12.25;;;23.10;73.40;;;;;;5067591;28;20051;-52
2021/06/11 08:40:42;;;;;;;17.15;12.50;;;23.10;74.20;;;;;;5073577;28;20436;-49
2021/06/11 08:43:09;;;;;;;13.98;11.40;;;23.10;74.30;;;;;;5072105;28;20559;-51
2021/06/11 08:45:38;;;;;;;16.48;12.63;;;23.20;74.20;;;;;;5074061;28;20054;-53
2021/06/11 08:48:04;;;;;;;16.40;12.00;;;23.30;74.20;;;;;;5071533;28;20519;-55
2021/06/11 08:50:32;;;;;;;15.32;12.27;;;23.40;74.80;;;;;;5056995;28;20047;-54
2021/06/11 08:53:08;;;;;;;18.23;11.95;;;23.40;75.30;;;;;;5073043;28;20052;-54
2021/06/11 08:55:36;;;;;;;15.00;12.02;;;23.30;73.80;;;;;;5071212;28;20040;-55
2021/06/11 08:58:06;;;;;;;14.98;11.32;;;23.40;73.50;;;;;;5076671;28;20028;-55
2021/06/11 09:00:41;;;;;;;17.98;12.35;;;23.40;72.60;;;;;;5076508;28;20040;-54
2021/06/11 09:03:22;;;;;;;17.02;13.52;;;23.50;72.10;;;;;;5070388;28;20053;-53
2021/06/11 09:05:58;;;;;;;16.13;12.50;;;23.50;71.50;;;;;;5066608;28;20049;-55
2021/06/11 09:08:28;;;;;;;20.83;13.25;;;23.60;73.30;;;;;;5076609;28;20046;-51
2021/06/11 09:11:29;;;;;;;20.83;12.65;;;23.60;72.30;;;;;;5068412;28;20040;-55
2021/06/11 09:14:03;;;;;;;17.58;13.43;;;23.60;71.50;;;;;;5074118;28;20036;-54
2021/06/11 09:16:29;;;;;;;14.43;12.07;;;23.50;72.40;;;;;;5039753;28;20118;-54
2021/06/11 09:19:05;;;;;;;15.25;11.23;;;23.50;71.40;;;;;;5058476;28;20134;-55
2021/06/11 09:21:42;;;;;;;14.70;11.27;;;23.50;71.10;;;;;;5050375;28;20064;-54
2021/06/11 09:24:36;;;;;;;16.73;12.93;;;23.50;73.00;;;;;;5076524;28;20048;-54
2021/06/11 09:27:11;;;;;;;15.63;12.30;;;23.50;72.10;;;;;;5072466;28;20071;-52
2021/06/11 09:29:49;;;;;;;17.40;11.27;;;23.50;71.80;;;;;;5065173;28;20060;-55
2021/06/11 09:32:33;;;;;;;15.77;12.40;;;23.50;72.40;;;;;;5072666;28;20048;-54
2021/06/11 09:35:10;;;;;;;15.93;12.73;;;23.60;72.90;;;;;;5077213;28;20101;-51
2021/06/11 09:38:25;;;;;;;13.65;11.40;;;23.70;73.10;;;;;;5070812;28;20042;-55
2021/06/11 09:41:08;;;;;;;16.05;12.55;;;23.90;71.10;;;;;;5071907;28;20056;-55
2021/06/11 09:43:55;;;;;;;18.30;14.55;;;23.90;69.40;;;;;;5071068;28;20408;-55
2021/06/11 09:46:43;;;;;;;19.85;15.13;;;23.90;70.40;;;;;;5072927;28;20123;-54
2021/06/11 09:49:16;;;;;;;20.38;15.15;;;23.80;71.50;;;;;;5058947;28;20048;-55
2021/06/11 09:51:42;;;;;;;19.38;15.55;;;23.70;72.60;;;;;;5047227;28;20504;-54
2021/06/11 09:54:27;;;;;;;17.02;13.65;;;23.60;73.00;;;;;;5073752;28;20036;-55
2021/06/11 09:56:54;;;;;;;14.25;11.13;;;23.60;72.20;;;;;;5076815;28;20044;-54
2021/06/11 09:59:40;;;;;;;16.98;13.35;;;23.70;72.60;;;;;;5079660;28;20520;-55
2021/06/11 10:02:14;;;;;;;16.00;14.00;;;23.80;71.60;;;;;;5058525;28;20457;-53
2021/06/11 10:04:42;;;;;;;17.95;14.50;;;24.00;70.90;;;;;;5067568;28;20380;-53
2021/06/11 10:07:10;;;;;;;13.07;11.52;;;23.90;70.80;;;;;;5055582;28;20072;-54
2021/06/11 10:09:38;;;;;;;14.32;12.00;;;24.00;71.60;;;;;;5077020;28;20060;-54
2021/06/11 10:12:04;;;;;;;15.65;12.13;;;24.10;71.60;;;;;;5077220;28;20560;-53
2021/06/11 10:14:30;;;;;;;14.32;12.15;;;24.20;69.80;;;;;;5068239;28;20048;-53
2021/06/11 10:16:57;;;;;;;18.73;14.05;;;24.40;70.40;;;;;;5073014;28;20097;-52
2021/06/11 10:19:24;;;;;;;19.30;13.90;;;24.60;69.90;;;;;;5067413;28;20045;-52
2021/06/11 10:21:50;;;;;;;17.85;14.68;;;24.70;69.60;;;;;;5074086;28;20040;-51
2021/06/11 10:24:16;;;;;;;15.50;12.82;;;24.60;68.00;;;;;;5069406;28;20071;-51
2021/06/11 10:26:42;;;;;;;16.42;12.95;;;24.70;68.90;;;;;;5078673;28;20044;-51
2021/06/11 10:29:13;;;;;;;15.43;12.82;;;24.70;68.40;;;;;;5072637;28;20123;-53
2021/06/11 10:31:40;;;;;;;;;;;24.80;67.40;;;;;;5073042;28;20094;-50
2021/06/11 10:34:10;;;;;;;14.98;12.15;;;24.60;66.90;;;;;;5075617;28;19920;-51
2021/06/11 10:36:40;;;;;;;21.23;14.27;;;24.60;67.40;;;;;;5062546;28;20041;-51
2021/06/11 10:39:10;;;;;;;16.87;12.93;;;24.50;67.50;;;;;;5073331;28;20052;-53
2021/06/11 10:41:59;;;;;;;17.60;14.38;;;24.50;67.80;;;;;;5076619;28;20044;-55
2021/06/11 10:44:41;;;;;;;14.60;11.27;;;24.60;68.00;;;;;;5064381;28;20045;-52
2021/06/11 10:47:15;;;;;;;11.27;10.02;;;24.60;67.40;;;;;;5073746;28;20040;-52
2021/06/11 10:50:06;;;;;;;10.43;9.05;;;24.60;66.10;;;;;;5071691;28;20573;-55
2021/06/11 10:52:53;;;;;;;9.70;8.23;;;24.70;66.10;;;;;;5078667;28;20048;-54
2021/06/11 10:55:21;;;;;;;9.15;7.45;;;24.80;65.80;;;;;;5072417;28;20098;-55
2021/06/11 10:57:52;;;;;;;7.43;5.95;;;25.00;66.80;;;;;;5073390;28;20059;-55
2021/06/11 11:00:26;;;;;;;9.13;5.90;;;25.10;64.50;;;;;;5074872;28;20079;-53
2021/06/11 11:02:58;;;;;;;10.30;8.45;;;25.30;63.60;;;;;;5073197;28;20036;-53
2021/06/11 11:05:39;;;;;;;5.53;3.90;;;25.30;64.10;;;;;;5072899;28;20119;-51
2021/06/11 11:08:10;;;;;;;13.52;6.97;;;25.20;63.50;;;;;;5067622;28;20052;-53
2021/06/11 11:10:47;;;;;;;11.45;9.52;;;25.20;64.00;;;;;;5079470;28;20123;-53
2021/06/11 11:13:18;;;;;;;10.00;8.73;;;25.10;64.10;;;;;;5058061;28;20153;-53
2021/06/11 11:15:51;;;;;;;7.93;6.13;;;24.80;65.20;;;;;;5073971;28;20043;-50
2021/06/11 11:18:19;;;;;;;10.30;7.50;;;24.70;66.10;;;;;;5074345;28;20051;-53
2021/06/11 11:20:45;;;;;;;9.75;8.07;;;24.80;66.80;;;;;;5073792;28;20040;-54
2021/06/11 11:23:13;;;;;;;13.10;9.82;;;24.80;66.50;;;;;;5075231;28;20051;-52
2021/06/11 11:25:40;;;;;;;12.15;9.85;;;24.80;66.50;;;;;;5071171;28;20055;-54
2021/06/11 11:28:07;;;;;;;13.05;9.05;;;24.80;66.90;;;;;;5061957;28;20385;-49
2021/06/11 11:30:37;;;;;;;10.85;8.35;;;24.90;67.70;;;;;;5075079;28;20505;-52
2021/06/11 11:33:05;;;;;;;11.70;10.00;;;24.90;68.20;;;;;;5074105;28;20036;-50
2021/06/11 11:35:35;;;;;;;11.00;8.13;;;25.00;67.60;;;;;;5073362;28;20051;-49
2021/06/11 11:38:05;;;;;;;11.45;7.88;;;25.10;67.00;;;;;;5074712;28;20043;-51
2021/06/11 11:40:31;;;;;;;15.93;11.45;;;25.10;66.50;;;;;;5072945;28;20451;-54
2021/06/11 11:43:01;;;;;;;11.55;9.02;;;25.10;66.60;;;;;;5073649;28;20059;-49
2021/06/11 11:45:31;;;;;;;10.35;8.60;;;25.00;65.40;;;;;;5073362;28;20072;-50
2021/06/11 11:48:04;;;;;;;14.30;11.43;;;24.80;66.20;;;;;;5072619;28;20131;-52
2021/06/11 11:50:34;;;;;;;15.82;12.38;;;24.70;68.10;;;;;;5072829;28;20048;-53
2021/06/11 11:53:05;;;;;;;13.65;9.88;;;24.60;68.20;;;;;;5071392;28;20054;-50
2021/06/11 11:55:32;;;;;;;16.83;11.10;;;24.40;68.20;;;;;;5070427;28;20064;-54
2021/06/11 11:57:59;;;;;;;13.82;10.00;;;24.20;68.20;;;;;;5066784;28;20036;-52
2021/06/11 12:00:27;;;;;;;18.60;12.20;;;24.00;68.80;;;;;;5057844;28;20066;-50
2021/06/11 12:02:55;;;;;;;18.08;13.15;;;23.90;69.50;;;;;;5060970;28;20037;-49
2021/06/11 12:05:21;;;;;;;18.40;12.50;;;23.80;69.80;;;;;;5056841;28;20054;-52
2021/06/11 12:07:47;;;;;;;19.67;13.20;;;23.80;70.20;;;;;;5073137;28;20032;-50
2021/06/11 12:10:17;;;;;;;20.17;14.48;;;23.70;71.00;;;;;;5074397;28;20489;-49
2021/06/11 12:12:43;;;;;;;24.70;17.40;;;23.70;71.40;;;;;;5072628;28;20090;-52
2021/06/11 12:15:09;;;;;;;25.50;16.65;;;23.70;71.20;;;;;;5044506;28;20104;-49
2021/06/11 12:17:37;;;;;;;24.65;16.45;;;23.60;72.10;;;;;;5072774;28;20460;-50
2021/06/11 12:20:04;;;;;;;21.38;15.13;;;23.60;71.80;;;;;;5075452;28;20123;-52
2021/06/11 12:22:29;;;;;;;17.42;13.05;;;23.50;71.90;;;;;;5073676;28;20447;-52
2021/06/11 12:24:57;;;;;;;16.40;12.73;;;23.50;70.80;;;;;;5074065;28;20037;-51
2021/06/11 12:27:28;;;;;;;17.10;12.52;;;23.50;72.10;;;;;;5088883;28;20401;-48
2021/06/11 12:29:53;;;;;;;18.85;12.52;;;23.60;72.10;;;;;;5059462;28;20481;-50
2021/06/11 12:32:19;;;;;;;14.55;11.18;;;23.70;72.10;;;;;;5074152;28;20090;-52
2021/06/11 12:34:46;;;;;;;15.18;12.82;;;23.80;70.90;;;;;;5040548;28;20051;-48
2021/06/11 12:37:14;;;;;;;17.80;14.35;;;24.00;71.30;;;;;;5068786;28;20043;-48
2021/06/11 12:39:41;;;;;;;18.73;15.07;;;24.00;71.00;;;;;;5076757;28;20052;-49
2021/06/11 12:42:21;;;;;;;17.60;14.40;;;24.10;70.40;;;;;;5076890;28;20040;-51
2021/06/11 12:44:48;;;;;;;20.02;14.80;;;24.10;70.80;;;;;;5076405;28;20121;-51